createdAt,value
2022-08-10T00:00:10.273Z,3.73
2022-08-10T00:02:39.075Z,3.60
2022-08-10T00:05:09.106Z,3.63
2022-08-10T00:07:46.617Z,4.00
2022-08-10T00:10:18.968Z,3.70
2022-08-10T00:12:54.567Z,3.97
2022-08-10T00:15:51.828Z,3.80
2022-08-10T00:18:28.913Z,4.00
2022-08-10T00:21:03.348Z,3.67
2022-08-10T00:23:32.271Z,3.73
2022-08-10T00:26:01.648Z,4.10
2022-08-10T00:28:32.302Z,3.87
2022-08-10T00:31:01.142Z,4.17
2022-08-10T00:33:30.098Z,3.60
2022-08-10T00:35:59.288Z,3.90
2022-08-10T00:38:28.025Z,3.87
2022-08-10T00:40:56.844Z,3.67
2022-08-10T00:43:25.819Z,4.10
2022-08-10T00:46:01.594Z,3.60
2022-08-10T00:48:32.288Z,4.00
2022-08-10T00:51:02.290Z,3.70
2022-08-10T00:53:31.783Z,3.77
2022-08-10T00:57:02.041Z,3.83
2022-08-10T00:58:50.308Z,3.73
2022-08-10T01:02:07.475Z,3.60
2022-08-10T01:04:39.692Z,3.80
2022-08-10T01:07:29.943Z,3.90
2022-08-10T01:10:16.947Z,3.90
2022-08-10T01:12:57.984Z,3.87
2022-08-10T01:15:32.207Z,3.30
2022-08-10T01:18:07.694Z,3.83
2022-08-10T01:20:48.929Z,3.80
2022-08-10T01:24:01.865Z,3.53
2022-08-10T01:26:50.981Z,3.53
2022-08-10T01:29:56.390Z,3.30
2022-08-10T01:32:49.293Z,3.60
2022-08-10T01:35:30.458Z,3.40
2022-08-10T01:38:07.923Z,3.80
2022-08-10T01:40:45.827Z,3.50
2022-08-10T01:43:18.710Z,3.90
2022-08-10T01:45:57.014Z,3.50
2022-08-10T01:48:32.281Z,3.50
2022-08-10T01:51:17.348Z,3.60
2022-08-10T01:53:53.190Z,3.30
2022-08-10T01:56:25.981Z,3.83
2022-08-10T01:59:01.613Z,3.50
2022-08-10T02:01:39.375Z,3.40
2022-08-10T02:04:13.582Z,3.30
2022-08-10T02:06:47.216Z,3.70
2022-08-10T02:09:22.404Z,3.47
2022-08-10T02:12:06.070Z,3.47
2022-08-10T02:14:41.903Z,3.30
2022-08-10T02:17:58.183Z,3.37
2022-08-10T02:20:16.548Z,3.23
2022-08-10T02:22:49.809Z,3.47
2022-08-10T02:25:41.294Z,3.70
2022-08-10T02:28:29.488Z,3.80
2022-08-10T02:31:06.628Z,3.67
2022-08-10T02:33:45.594Z,3.40
2022-08-10T02:36:32.894Z,3.27
2022-08-10T02:39:07.876Z,3.37
2022-08-10T02:45:01.928Z,3.73
2022-08-10T02:45:26.411Z,3.07
2022-08-10T02:47:51.041Z,3.27
2022-08-10T02:50:30.679Z,3.80
2022-08-10T02:53:07.934Z,3.47
2022-08-10T02:56:29.912Z,3.30
2022-08-10T02:59:17.472Z,3.40
2022-08-10T03:01:50.553Z,3.23
2022-08-10T03:04:57.399Z,3.43
2022-08-10T03:07:44.616Z,3.40
2022-08-10T03:10:19.873Z,3.50
2022-08-10T03:12:54.767Z,3.47
2022-08-10T03:15:34.410Z,3.40
2022-08-10T03:18:05.647Z,3.37
2022-08-10T03:20:40.916Z,3.57
2022-08-10T03:23:16.481Z,3.40
2022-08-10T03:25:53.053Z,3.67
2022-08-10T03:28:25.400Z,3.40
2022-08-10T03:30:57.450Z,3.83
2022-08-10T03:33:31.149Z,3.60
2022-08-10T03:36:43.365Z,2.93
2022-08-10T03:38:52.761Z,3.10
2022-08-10T03:42:01.316Z,3.23
2022-08-10T03:44:34.789Z,4.07
2022-08-10T03:47:16.131Z,3.30
2022-08-10T03:49:48.999Z,3.10
2022-08-10T03:52:26.146Z,3.20
2022-08-10T03:54:56.986Z,3.13
2022-08-10T03:57:30.004Z,3.73
2022-08-10T03:59:59.404Z,3.33
2022-08-10T04:02:45.314Z,3.67
2022-08-10T04:05:17.706Z,4.13
2022-08-10T04:07:48.009Z,4.03
2022-08-10T04:10:19.183Z,3.47
2022-08-10T04:12:48.092Z,3.43
2022-08-10T04:15:19.850Z,3.73
2022-08-10T04:18:03.657Z,3.60
2022-08-10T04:20:39.850Z,3.90
2022-08-10T04:23:16.297Z,3.50
2022-08-10T04:26:20.308Z,4.10
2022-08-10T04:28:50.312Z,3.40
2022-08-10T04:31:20.876Z,3.97
2022-08-10T04:33:53.726Z,3.60
2022-08-10T04:36:24.537Z,3.33
2022-08-10T04:38:54.870Z,3.40
2022-08-10T04:41:25.802Z,4.07
2022-08-10T04:43:54.843Z,3.83
2022-08-10T04:46:55.403Z,3.70
2022-08-10T04:49:55.918Z,3.70
2022-08-10T04:52:53.145Z,4.20
2022-08-10T04:55:22.393Z,3.40
2022-08-10T04:57:52.620Z,3.90
2022-08-10T05:00:21.536Z,4.10
2022-08-10T05:02:50.911Z,3.70
2022-08-10T05:05:20.262Z,4.17
2022-08-10T05:07:54.309Z,4.00
2022-08-10T05:10:26.085Z,4.13
2022-08-10T05:12:56.348Z,4.10
2022-08-10T05:15:25.407Z,3.80
2022-08-10T05:18:08.215Z,3.77
2022-08-10T05:20:42.265Z,3.70
2022-08-10T05:23:18.184Z,3.50
2022-08-10T05:25:46.959Z,3.63
2022-08-10T05:28:17.281Z,3.80
2022-08-10T05:30:46.158Z,3.60
2022-08-10T05:33:14.939Z,3.67
2022-08-10T05:35:55.488Z,3.80
2022-08-10T05:38:30.309Z,3.60
2022-08-10T05:40:59.856Z,3.50
2022-08-10T05:43:30.327Z,3.07
2022-08-10T05:46:16.855Z,3.50
2022-08-10T05:48:59.034Z,3.40
2022-08-10T05:51:44.243Z,3.27
2022-08-10T05:54:16.310Z,3.00
2022-08-10T05:56:53.329Z,3.10
2022-08-10T06:00:35.890Z,3.00
2022-08-10T06:02:59.057Z,3.23
2022-08-10T06:05:33.507Z,2.80
2022-08-10T06:08:09.956Z,2.63
2022-08-10T06:12:23.787Z,2.77
2022-08-10T06:14:16.063Z,2.80
2022-08-10T06:16:47.318Z,3.20
2022-08-10T06:19:16.905Z,2.90
2022-08-10T06:22:00.965Z,3.17
2022-08-10T06:24:36.431Z,5.27
2022-08-10T06:27:17.521Z,3.30
2022-08-10T06:29:51.390Z,2.87
2022-08-10T06:32:28.650Z,2.90
2022-08-10T06:35:01.162Z,3.00
2022-08-10T06:37:34.531Z,2.90
2022-08-10T06:40:35.153Z,3.47
2022-08-10T06:43:10.911Z,2.60
2022-08-10T06:45:47.277Z,3.17
2022-08-10T06:48:46.703Z,2.93
2022-08-10T06:51:24.063Z,3.07
2022-08-10T06:53:57.771Z,3.43
2022-08-10T06:56:37.564Z,3.20
2022-08-10T06:59:22.551Z,3.10
2022-08-10T07:01:59.030Z,3.20
2022-08-10T07:04:36.269Z,2.80
2022-08-10T07:07:09.342Z,2.97
2022-08-10T07:09:42.934Z,3.23
2022-08-10T07:12:15.565Z,4.67
2022-08-10T07:14:47.341Z,3.57
2022-08-10T07:17:22.009Z,2.83
2022-08-10T07:19:57.298Z,2.90
2022-08-10T07:23:01.785Z,2.73
2022-08-10T07:25:26.482Z,4.43
2022-08-10T07:28:01.774Z,3.80
2022-08-10T07:30:37.213Z,2.73
2022-08-10T07:33:10.071Z,2.60
2022-08-10T07:35:45.503Z,2.67
2022-08-10T07:38:23.042Z,2.38
2022-08-10T07:40:55.557Z,2.80
2022-08-10T07:43:28.586Z,2.65
2022-08-10T07:46:00.504Z,2.75
2022-08-10T07:48:55.875Z,2.38
2022-08-10T07:51:29.852Z,2.75
2022-08-10T07:54:06.168Z,2.47
2022-08-10T07:56:48.789Z,2.60
2022-08-10T07:59:31.282Z,2.85
2022-08-10T08:02:03.741Z,2.65
2022-08-10T08:04:34.438Z,2.67
2022-08-10T08:07:08.648Z,3.05
2022-08-10T08:09:39.490Z,3.97
2022-08-10T08:12:31.441Z,3.00
2022-08-10T08:16:14.484Z,2.70
2022-08-10T08:17:59.723Z,2.75
2022-08-10T08:20:31.616Z,3.58
2022-08-10T08:24:09.034Z,3.50
2022-08-10T08:25:58.113Z,3.17
2022-08-10T08:28:29.996Z,3.15
2022-08-10T08:31:00.633Z,2.63
2022-08-10T08:33:41.938Z,2.90
2022-08-10T08:36:12.936Z,2.50
2022-08-10T08:38:45.780Z,2.97
2022-08-10T08:41:55.007Z,2.40
2022-08-10T08:44:51.110Z,2.40
2022-08-10T08:48:02.126Z,2.75
2022-08-10T08:50:46.680Z,2.40
2022-08-10T08:54:02.636Z,2.28
2022-08-10T08:56:32.462Z,2.22
2022-08-10T08:59:32.428Z,2.30
2022-08-10T09:02:30.546Z,2.20
2022-08-10T09:05:21.891Z,2.30
2022-08-10T09:08:18.430Z,2.30
2022-08-10T09:10:59.383Z,2.22
2022-08-10T09:13:43.550Z,2.30
2022-08-10T09:16:31.644Z,2.05
2022-08-10T09:19:11.670Z,2.50
2022-08-10T09:22:18.369Z,2.30
2022-08-10T09:24:59.064Z,2.70
2022-08-10T09:27:37.592Z,2.47
2022-08-10T09:30:11.121Z,2.72
2022-08-10T09:36:19.686Z,3.13
2022-08-10T09:36:25.760Z,2.25
2022-08-10T09:38:56.018Z,2.70
2022-08-10T09:41:42.696Z,2.60
2022-08-10T09:44:28.340Z,2.38
2022-08-10T09:47:59.983Z,2.20
2022-08-10T09:50:50.052Z,2.42
2022-08-10T09:53:36.438Z,2.40
2022-08-10T09:56:26.754Z,2.45
2022-08-10T09:59:27.070Z,2.67
2022-08-10T10:02:27.656Z,2.70
2022-08-10T10:05:15.143Z,2.83
2022-08-10T10:07:55.155Z,2.53
2022-08-10T10:10:34.265Z,2.70
2022-08-10T10:13:10.580Z,2.70
2022-08-10T10:15:54.365Z,2.60
2022-08-10T10:18:44.531Z,2.67
2022-08-10T10:21:54.193Z,2.70
2022-08-10T10:24:39.523Z,2.40
2022-08-10T10:27:25.864Z,2.47
2022-08-10T10:30:06.269Z,2.97
2022-08-10T10:32:57.947Z,2.40
2022-08-10T10:35:37.814Z,2.70
2022-08-10T10:38:11.556Z,2.38
2022-08-10T10:40:49.351Z,2.58
2022-08-10T10:43:44.321Z,2.47
2022-08-10T10:46:34.465Z,2.60
2022-08-10T10:49:24.171Z,2.78
2022-08-10T10:52:06.145Z,2.90
2022-08-10T10:54:48.073Z,2.85
2022-08-10T10:57:58.535Z,2.80
2022-08-10T11:00:26.246Z,2.95
2022-08-10T11:03:21.138Z,2.67
2022-08-10T11:06:09.730Z,3.05
2022-08-10T11:08:52.171Z,2.92
2022-08-10T11:12:01.814Z,2.63
2022-08-10T11:14:31.885Z,3.00
2022-08-10T11:17:12.545Z,2.63
2022-08-10T11:20:01.326Z,2.90
2022-08-10T11:22:40.421Z,2.70
2022-08-10T11:25:21.428Z,2.97
2022-08-10T11:28:00.893Z,2.85
2022-08-10T11:30:42.883Z,2.50
2022-08-10T11:33:30.830Z,2.45
2022-08-10T11:36:10.839Z,2.88
2022-08-10T11:39:12.907Z,2.90
2022-08-10T11:42:10.367Z,3.08
2022-08-10T11:44:50.685Z,2.47
2022-08-10T11:47:24.930Z,2.70
2022-08-10T11:50:03.217Z,2.63
2022-08-10T11:52:42.619Z,2.67
2022-08-10T11:55:20.644Z,2.40
2022-08-10T11:57:56.683Z,2.30
2022-08-10T12:00:29.567Z,2.60
2022-08-10T12:03:08.354Z,2.38
2022-08-10T12:05:51.638Z,2.53
2022-08-10T12:10:07.017Z,2.35
2022-08-10T12:11:25.252Z,2.50
2022-08-10T12:14:22.534Z,2.30
2022-08-10T12:17:01.043Z,2.50
2022-08-10T12:19:59.321Z,2.03
2022-08-10T12:22:42.874Z,2.30
2022-08-10T12:25:55.161Z,2.30
2022-08-10T12:28:18.438Z,2.28
2022-08-10T12:30:57.735Z,2.40
2022-08-10T12:34:01.896Z,2.80
2022-08-10T12:36:42.716Z,2.50
2022-08-10T12:39:20.240Z,2.70
2022-08-10T12:41:58.682Z,2.60
2022-08-10T12:44:41.678Z,2.80
2022-08-10T12:47:37.866Z,2.60
2022-08-10T12:50:33.533Z,2.50
2022-08-10T12:53:12.643Z,2.55
2022-08-10T12:55:43.975Z,2.50
2022-08-10T12:58:57.173Z,2.70
2022-08-10T13:01:18.790Z,2.58
2022-08-10T13:04:20.461Z,2.70
2022-08-10T13:06:49.981Z,2.63
2022-08-10T13:09:24.607Z,2.63
2022-08-10T13:12:38.487Z,2.65
2022-08-10T13:15:01.614Z,2.38
2022-08-10T13:17:39.566Z,2.60
2022-08-10T13:20:24.105Z,2.80
2022-08-10T13:23:11.886Z,2.90
2022-08-10T13:25:49.833Z,2.50
2022-08-10T13:28:36.392Z,2.55
2022-08-10T13:31:16.829Z,2.50
2022-08-10T13:34:40.410Z,2.63
2022-08-10T13:36:54.673Z,3.00
2022-08-10T13:39:59.127Z,2.65
2022-08-10T13:42:32.899Z,2.47
2022-08-10T13:45:10.807Z,2.70
2022-08-10T13:47:48.655Z,2.50
2022-08-10T13:50:35.263Z,2.50
2022-08-10T13:53:17.849Z,3.30
2022-08-10T13:55:53.904Z,2.70
2022-08-10T13:58:30.344Z,2.80
2022-08-10T14:01:01.852Z,2.90
2022-08-10T14:03:39.580Z,2.88
2022-08-10T14:06:13.715Z,2.80
2022-08-10T14:08:52.977Z,2.97
2022-08-10T14:11:29.216Z,2.47
2022-08-10T14:14:01.482Z,2.55
2022-08-10T14:16:33.368Z,2.80
2022-08-10T14:19:17.921Z,2.88
2022-08-10T14:21:48.200Z,2.88
2022-08-10T14:24:27.569Z,2.83
2022-08-10T14:27:07.049Z,3.47
2022-08-10T14:29:44.537Z,3.08
2022-08-10T14:32:17.372Z,3.22
2022-08-10T14:36:16.706Z,2.70
2022-08-10T14:37:51.967Z,3.05
2022-08-10T14:40:25.924Z,2.65
2022-08-10T14:43:02.258Z,2.80
2022-08-10T14:45:35.772Z,2.90
2022-08-10T14:48:15.071Z,2.72
2022-08-10T14:50:55.489Z,3.15
2022-08-10T14:53:30.662Z,2.70
2022-08-10T14:56:13.477Z,3.03
2022-08-10T15:00:23.155Z,2.67
2022-08-10T15:02:40.521Z,2.50
2022-08-10T15:05:39.629Z,2.53
2022-08-10T15:08:12.701Z,2.67
2022-08-10T15:10:42.983Z,2.75
2022-08-10T15:13:33.823Z,2.40
2022-08-10T15:16:15.212Z,2.67
2022-08-10T15:18:58.482Z,2.70
2022-08-10T15:21:42.923Z,2.80
2022-08-10T15:24:38.155Z,2.60
2022-08-10T15:27:12.088Z,2.50
2022-08-10T15:29:57.526Z,2.80
2022-08-10T15:32:55.629Z,3.00
2022-08-10T15:35:46.875Z,2.55
2022-08-10T15:38:27.740Z,2.90
2022-08-10T15:41:06.236Z,3.00
2022-08-10T15:43:44.508Z,2.90
2022-08-10T15:46:21.993Z,2.85
2022-08-10T15:49:04.482Z,2.70
2022-08-10T15:51:54.092Z,2.70
2022-08-10T15:54:34.352Z,2.60
2022-08-10T15:57:09.744Z,2.47
2022-08-10T15:59:47.973Z,2.58
2022-08-10T16:02:30.389Z,2.75
2022-08-10T16:05:12.932Z,2.92
2022-08-10T16:07:49.429Z,2.28
2022-08-10T16:10:28.943Z,2.80
2022-08-10T16:13:02.463Z,2.30
2022-08-10T16:15:58.204Z,2.60
2022-08-10T16:18:31.567Z,2.88
2022-08-10T16:21:06.804Z,2.47
2022-08-10T16:23:42.223Z,2.60
2022-08-10T16:26:17.885Z,2.40
2022-08-10T16:28:59.171Z,3.55
2022-08-10T16:31:32.743Z,2.20
2022-08-10T16:34:09.009Z,2.35
2022-08-10T16:36:47.480Z,2.78
2022-08-10T16:39:59.253Z,2.72
2022-08-10T16:42:31.228Z,2.63
2022-08-10T16:45:55.589Z,2.65
2022-08-10T16:48:49.952Z,2.50
2022-08-10T16:51:25.755Z,2.65
2022-08-10T16:54:08.773Z,2.47
2022-08-10T16:57:57.473Z,2.58
2022-08-10T17:00:30.402Z,2.38
2022-08-10T17:04:04.578Z,2.70
2022-08-10T17:06:09.653Z,2.67
2022-08-10T17:08:48.419Z,2.58
2022-08-10T17:11:24.588Z,2.60
2022-08-10T17:13:58.739Z,2.58
2022-08-10T17:16:37.516Z,3.25
2022-08-10T17:19:14.784Z,3.97
2022-08-10T17:21:53.090Z,5.05
2022-08-10T17:24:54.061Z,5.75
2022-08-10T17:28:05.447Z,6.03
2022-08-10T17:30:34.249Z,5.10
2022-08-10T17:33:12.324Z,4.65
2022-08-10T17:35:46.842Z,5.40
2022-08-10T17:38:22.839Z,5.35
2022-08-10T17:41:03.818Z,4.88
2022-08-10T17:43:46.455Z,5.78
2022-08-10T17:46:27.717Z,4.90
2022-08-10T17:49:10.456Z,4.18
2022-08-10T17:51:43.272Z,5.05
2022-08-10T17:54:28.140Z,5.75
2022-08-10T17:57:06.078Z,4.80
2022-08-10T17:59:39.056Z,4.18
2022-08-10T18:02:11.985Z,4.10
2022-08-10T18:04:47.425Z,4.03
2022-08-10T18:08:13.238Z,3.85
2022-08-10T18:10:45.129Z,3.72
2022-08-10T18:13:22.332Z,3.47
2022-08-10T18:15:53.413Z,2.92
2022-08-10T18:18:28.723Z,2.92
2022-08-10T18:21:09.536Z,2.90
2022-08-10T18:23:42.520Z,3.13
2022-08-10T18:26:25.587Z,3.33
2022-08-10T18:28:59.672Z,2.92
2022-08-10T18:31:31.439Z,3.00
2022-08-10T18:34:03.114Z,2.72
2022-08-10T18:36:43.472Z,2.90
2022-08-10T18:39:42.220Z,2.90
2022-08-10T18:42:25.719Z,3.55
2022-08-10T18:45:06.295Z,3.30
2022-08-10T18:47:59.054Z,2.90
2022-08-10T18:51:24.843Z,3.05
2022-08-10T18:54:00.814Z,2.88
2022-08-10T18:56:56.318Z,3.42
2022-08-10T19:00:09.736Z,3.08
2022-08-10T19:03:01.308Z,3.35
2022-08-10T19:05:54.552Z,2.97
2022-08-10T19:08:50.411Z,2.95
2022-08-10T19:11:52.665Z,3.20
2022-08-10T19:14:58.619Z,3.10
2022-08-10T19:18:03.033Z,3.17
2022-08-10T19:20:45.514Z,3.38
2022-08-10T19:23:52.749Z,3.00
2022-08-10T19:26:46.015Z,2.65
2022-08-10T19:30:09.002Z,3.20
2022-08-10T19:32:39.833Z,3.17
2022-08-10T19:35:24.130Z,3.05
2022-08-10T19:38:11.702Z,3.05
2022-08-10T19:41:09.511Z,2.95
2022-08-10T19:44:00.883Z,3.00
2022-08-10T19:46:43.833Z,3.10
2022-08-10T19:49:39.605Z,3.00
2022-08-10T19:52:24.847Z,2.80
2022-08-10T19:55:06.487Z,2.83
2022-08-10T19:57:54.308Z,2.97
2022-08-10T20:00:29.497Z,3.47
2022-08-10T20:03:18.410Z,3.13
2022-08-10T20:06:20.892Z,3.17
2022-08-10T20:09:02.158Z,3.00
2022-08-10T20:11:47.163Z,3.17
2022-08-10T20:14:23.055Z,3.25
2022-08-10T20:16:59.911Z,3.15
2022-08-10T20:19:53.669Z,2.95
2022-08-10T20:22:36.505Z,2.83
2022-08-10T20:25:15.074Z,3.05
2022-08-10T20:27:59.933Z,3.00
2022-08-10T20:30:36.103Z,2.97
2022-08-10T20:33:19.026Z,2.90
2022-08-10T20:35:51.659Z,2.92
2022-08-10T20:38:29.763Z,2.95
2022-08-10T20:41:15.958Z,2.97
2022-08-10T20:44:01.614Z,3.08
2022-08-10T20:46:44.854Z,2.80
2022-08-10T20:50:47.964Z,2.70
2022-08-10T20:53:22.519Z,3.00
2022-08-10T20:56:04.891Z,2.67
2022-08-10T20:59:10.210Z,2.95
2022-08-10T21:02:07.175Z,3.30
2022-08-10T21:04:57.100Z,3.00
2022-08-10T21:08:08.586Z,2.80
2022-08-10T21:11:02.668Z,3.10
2022-08-10T21:14:02.048Z,2.95
2022-08-10T21:17:06.576Z,3.08
2022-08-10T21:20:47.399Z,3.20
2022-08-10T21:23:30.701Z,2.90
2022-08-10T21:26:09.934Z,2.88
2022-08-10T21:29:21.235Z,3.10
2022-08-10T21:32:20.322Z,3.00
2022-08-10T21:35:05.919Z,3.10
2022-08-10T21:38:00.005Z,3.20
2022-08-10T21:41:17.108Z,3.15
2022-08-10T21:44:08.862Z,3.40
2022-08-10T21:47:09.802Z,3.10
2022-08-10T21:50:16.286Z,3.10
2022-08-10T21:53:17.163Z,3.13
2022-08-10T21:56:15.841Z,2.97
2022-08-10T21:59:12.911Z,3.03
2022-08-10T22:02:10.240Z,3.00
2022-08-10T22:04:58.892Z,2.97
2022-08-10T22:07:48.314Z,3.20
2022-08-10T22:10:40.910Z,2.73
2022-08-10T22:13:33.930Z,3.07
2022-08-10T22:16:27.308Z,3.00
2022-08-10T22:19:19.464Z,3.00
2022-08-10T22:22:27.639Z,3.50
2022-08-10T22:25:30.046Z,3.10
2022-08-10T22:28:20.105Z,3.23
2022-08-10T22:31:30.812Z,3.30
2022-08-10T22:34:54.965Z,3.27
2022-08-10T22:37:59.794Z,3.33
2022-08-10T22:40:54.564Z,3.07
2022-08-10T22:43:48.833Z,3.17
2022-08-10T22:46:46.430Z,3.70
2022-08-10T22:49:22.077Z,3.60
2022-08-10T22:51:56.197Z,3.50
2022-08-10T22:54:52.111Z,3.20
2022-08-10T22:57:39.165Z,3.00
2022-08-10T23:00:15.334Z,3.57
2022-08-10T23:02:54.567Z,3.33
2022-08-10T23:05:34.815Z,3.60
2022-08-10T23:08:29.711Z,3.50
2022-08-10T23:11:07.775Z,3.30
2022-08-10T23:13:43.390Z,3.60
2022-08-10T23:16:39.610Z,2.97
2022-08-10T23:19:18.700Z,3.87
2022-08-10T23:22:03.391Z,3.30
2022-08-10T23:24:41.003Z,3.40
2022-08-10T23:27:37.977Z,3.47
2022-08-10T23:30:10.152Z,3.53
2022-08-10T23:32:44.098Z,3.50
2022-08-10T23:36:30.567Z,3.30
2022-08-10T23:38:08.409Z,3.43
2022-08-10T23:40:39.516Z,3.47
2022-08-10T23:43:15.506Z,3.67
2022-08-10T23:45:53.772Z,3.50
2022-08-10T23:48:27.884Z,3.63
2022-08-10T23:51:01.703Z,3.20
2022-08-10T23:53:35.516Z,3.80
2022-08-10T23:56:11.803Z,3.60
2022-08-10T23:58:48.451Z,3.20
